createdAt,value
2019-03-23T00:00:45.476Z,32.00
2019-03-23T00:03:16.057Z,32.90
2019-03-23T00:05:45.921Z,31.63
2019-03-23T00:08:16.497Z,33.53
2019-03-23T00:10:46.777Z,35.03
2019-03-23T00:13:17.431Z,35.70
2019-03-23T00:15:47.733Z,30.83
2019-03-23T00:18:18.281Z,29.60
2019-03-23T00:20:49.025Z,33.57
2019-03-23T00:23:19.324Z,29.70
2019-03-23T00:25:49.634Z,29.70
2019-03-23T00:28:19.978Z,35.03
2019-03-23T00:30:50.282Z,28.33
2019-03-23T00:33:20.441Z,33.00
2019-03-23T00:35:51.059Z,33.87
2019-03-23T00:38:21.409Z,28.90
2019-03-23T00:40:52.270Z,33.50
2019-03-23T00:43:22.582Z,41.47
2019-03-23T00:45:53.053Z,34.87
2019-03-23T00:48:23.665Z,31.50
2019-03-23T00:50:54.248Z,36.07
2019-03-23T00:53:24.771Z,35.30
2019-03-23T00:55:54.647Z,34.20
2019-03-23T00:58:24.932Z,37.60
2019-03-23T01:00:54.980Z,37.73
2019-03-23T01:03:25.433Z,39.10
2019-03-23T01:05:55.833Z,40.27
2019-03-23T01:08:26.785Z,33.40
2019-03-23T01:10:56.676Z,36.67
2019-03-23T01:13:27.329Z,36.20
2019-03-23T01:15:57.573Z,38.90
2019-03-23T01:18:27.492Z,33.60
2019-03-23T01:20:58.095Z,36.30
2019-03-23T01:23:28.837Z,37.70
2019-03-23T01:25:59.933Z,42.23
2019-03-23T01:28:30.581Z,32.40
2019-03-23T01:31:01.153Z,37.40
2019-03-23T01:33:31.421Z,34.13
2019-03-23T01:36:02.458Z,33.47
2019-03-23T01:38:33.011Z,30.20
2019-03-23T01:41:03.293Z,34.43
2019-03-23T01:43:34.047Z,31.33
2019-03-23T01:46:04.070Z,34.70
2019-03-23T01:48:35.153Z,34.97
2019-03-23T01:51:05.691Z,36.27
2019-03-23T01:53:36.925Z,37.30
2019-03-23T01:56:07.121Z,35.30
2019-03-23T01:58:37.302Z,37.60
2019-03-23T02:01:07.544Z,35.03
2019-03-23T02:03:38.125Z,35.70
2019-03-23T02:06:08.961Z,38.93
2019-03-23T02:08:39.166Z,37.20
2019-03-23T02:11:09.517Z,35.30
2019-03-23T02:13:40.051Z,29.13
2019-03-23T02:16:10.574Z,33.67
2019-03-23T02:18:41.575Z,41.47
2019-03-23T02:21:12.564Z,35.00
2019-03-23T02:23:42.776Z,39.53
2019-03-23T02:26:12.691Z,37.70
2019-03-23T02:28:42.980Z,31.63
2019-03-23T02:31:13.652Z,40.13
2019-03-23T02:33:44.286Z,40.60
2019-03-23T02:36:14.977Z,34.23
2019-03-23T02:38:45.862Z,33.23
2019-03-23T02:41:16.923Z,35.10
2019-03-23T02:43:47.751Z,34.77
2019-03-23T02:46:17.642Z,35.90
2019-03-23T02:48:48.913Z,45.43
2019-03-23T02:51:19.186Z,34.60
2019-03-23T02:53:49.991Z,37.07
2019-03-23T02:56:20.503Z,38.37
2019-03-23T02:58:51.573Z,35.47
2019-03-23T03:01:22.141Z,33.37
2019-03-23T03:03:52.877Z,37.43
2019-03-23T03:06:23.484Z,37.13
2019-03-23T03:08:54.510Z,41.80
2019-03-23T03:11:24.562Z,39.90
2019-03-23T03:13:54.793Z,39.47
2019-03-23T03:16:25.128Z,40.63
2019-03-23T03:18:55.761Z,39.20
2019-03-23T03:21:25.973Z,39.23
2019-03-23T03:23:56.544Z,36.50
2019-03-23T03:26:27.205Z,38.00
2019-03-23T03:28:57.907Z,38.17
2019-03-23T03:31:28.504Z,30.57
2019-03-23T03:33:59.404Z,30.27
2019-03-23T03:36:30.365Z,30.00
2019-03-23T03:39:00.603Z,32.33
2019-03-23T03:41:30.863Z,31.60
2019-03-23T03:44:01.765Z,25.50
2019-03-23T03:46:32.014Z,29.87
2019-03-23T03:49:12.353Z,30.27
2019-03-23T03:51:34.608Z,32.00
2019-03-23T03:54:05.020Z,24.13
2019-03-23T03:56:35.778Z,32.20
2019-03-23T03:59:05.847Z,30.10
2019-03-23T04:01:36.271Z,27.40
2019-03-23T04:04:06.410Z,29.43
2019-03-23T04:06:37.235Z,33.03
2019-03-23T04:09:08.394Z,31.80
2019-03-23T04:11:38.614Z,35.40
2019-03-23T04:14:09.181Z,41.13
2019-03-23T04:16:39.079Z,42.80
2019-03-23T04:19:09.358Z,43.33
2019-03-23T04:21:40.381Z,35.80
2019-03-23T04:24:10.652Z,42.50
2019-03-23T04:26:41.606Z,42.73
2019-03-23T04:29:12.038Z,44.43
2019-03-23T04:31:42.339Z,39.67
2019-03-23T04:34:12.962Z,39.30
2019-03-23T04:36:42.863Z,33.03
2019-03-23T04:39:13.133Z,34.30
2019-03-23T04:41:43.412Z,31.60
2019-03-23T04:44:14.081Z,29.10
2019-03-23T04:46:44.265Z,27.67
2019-03-23T04:49:15.086Z,23.47
2019-03-23T04:51:45.316Z,27.70
2019-03-23T04:54:15.562Z,29.40
2019-03-23T04:56:45.845Z,32.13
2019-03-23T04:59:16.954Z,29.33
2019-03-23T05:01:47.301Z,24.43
2019-03-23T05:04:17.934Z,28.50
2019-03-23T05:06:48.953Z,24.00
2019-03-23T05:09:19.275Z,29.73
2019-03-23T05:11:50.154Z,33.30
2019-03-23T05:14:20.601Z,38.90
2019-03-23T05:16:50.889Z,42.87
2019-03-23T05:19:22.172Z,51.23
2019-03-23T05:21:52.811Z,49.50
2019-03-23T05:24:23.485Z,46.60
2019-03-23T05:26:54.425Z,56.43
2019-03-23T05:29:25.090Z,53.33
2019-03-23T05:31:55.313Z,52.07
2019-03-23T05:34:26.600Z,57.47
2019-03-23T05:36:56.869Z,47.07
2019-03-23T05:39:27.485Z,44.30
2019-03-23T05:41:57.858Z,48.30
2019-03-23T05:44:28.813Z,65.30
2019-03-23T05:46:59.349Z,53.70
2019-03-23T05:49:29.285Z,47.83
2019-03-23T05:52:01.545Z,48.60
2019-03-23T05:54:31.985Z,52.87
2019-03-23T05:57:02.634Z,52.93
2019-03-23T05:59:33.323Z,50.33
2019-03-23T06:02:03.537Z,57.77
2019-03-23T06:04:33.766Z,58.30
2019-03-23T06:07:04.345Z,59.17
2019-03-23T06:09:34.297Z,56.30
2019-03-23T06:12:04.897Z,57.93
2019-03-23T06:14:35.181Z,51.87
2019-03-23T06:17:06.119Z,63.63
2019-03-23T06:19:36.341Z,60.90
2019-03-23T06:22:06.644Z,61.07
2019-03-23T06:24:36.957Z,60.30
2019-03-23T06:27:07.708Z,59.57
2019-03-23T06:29:37.898Z,58.33
2019-03-23T06:32:08.082Z,63.37
2019-03-23T06:34:39.216Z,63.77
2019-03-23T06:37:10.439Z,67.77
2019-03-23T06:39:40.581Z,68.87
2019-03-23T06:42:10.482Z,60.57
2019-03-23T06:44:41.339Z,64.27
2019-03-23T06:47:12.294Z,61.13
2019-03-23T06:49:43.132Z,58.13
2019-03-23T06:52:13.805Z,62.80
2019-03-23T06:54:44.026Z,57.07
2019-03-23T06:57:14.662Z,52.77
2019-03-23T06:59:45.393Z,49.37
2019-03-23T07:02:15.727Z,47.13
2019-03-23T07:04:46.051Z,38.03
2019-03-23T07:07:16.376Z,42.23
2019-03-23T07:09:46.580Z,28.80
2019-03-23T07:12:17.370Z,25.50
2019-03-23T07:14:47.676Z,19.27
2019-03-23T07:17:18.541Z,24.93
2019-03-23T07:19:48.843Z,20.30
2019-03-23T07:22:19.474Z,16.50
2019-03-23T07:24:49.706Z,19.40
2019-03-23T07:27:20.329Z,18.80
2019-03-23T07:29:50.511Z,14.87
2019-03-23T07:32:21.818Z,19.23
2019-03-23T07:34:52.890Z,19.27
2019-03-23T07:37:23.310Z,20.10
2019-03-23T07:39:54.129Z,18.37
2019-03-23T07:42:24.964Z,20.43
2019-03-23T07:44:54.899Z,13.97
2019-03-23T07:47:25.074Z,18.00
2019-03-23T07:49:55.676Z,14.73
2019-03-23T07:52:26.233Z,13.90
2019-03-23T07:54:58.639Z,19.17
2019-03-23T07:57:29.221Z,10.67
2019-03-23T07:59:59.365Z,13.60
2019-03-23T08:02:29.610Z,14.00
2019-03-23T08:04:59.982Z,14.40
2019-03-23T08:07:30.259Z,12.57
2019-03-23T08:10:00.555Z,13.00
2019-03-23T08:12:31.112Z,15.27
2019-03-23T08:15:01.863Z,13.13
2019-03-23T08:17:32.906Z,12.03
2019-03-23T08:20:02.854Z,11.97
2019-03-23T08:22:33.268Z,12.83
2019-03-23T08:25:03.490Z,12.03
2019-03-23T08:27:33.709Z,12.60
2019-03-23T08:30:04.101Z,13.17
2019-03-23T08:32:34.753Z,12.10
2019-03-23T08:35:05.400Z,11.33
2019-03-23T08:37:35.950Z,8.53
2019-03-23T08:40:06.909Z,11.60
2019-03-23T08:42:37.773Z,9.23
2019-03-23T08:45:08.202Z,10.50
2019-03-23T08:47:38.882Z,12.70
2019-03-23T08:50:09.233Z,10.03
2019-03-23T08:52:39.793Z,12.13
2019-03-23T08:55:10.416Z,8.93
2019-03-23T08:57:41.550Z,10.77
2019-03-23T09:00:11.798Z,11.60
2019-03-23T09:02:42.090Z,8.80
2019-03-23T09:05:12.751Z,14.37
2019-03-23T09:07:43.377Z,11.23
2019-03-23T09:10:13.553Z,11.13
2019-03-23T09:12:43.456Z,9.93
2019-03-23T09:15:13.883Z,11.10
2019-03-23T09:17:44.190Z,8.33
2019-03-23T09:20:15.141Z,14.10
2019-03-23T09:22:46.421Z,9.67
2019-03-23T09:25:16.597Z,9.80
2019-03-23T09:27:46.968Z,13.67
2019-03-23T09:30:18.658Z,9.20
2019-03-23T09:32:49.327Z,13.60
2019-03-23T09:35:19.241Z,8.90
2019-03-23T09:37:50.409Z,9.60
2019-03-23T09:40:21.029Z,10.80
2019-03-23T09:42:51.419Z,9.77
2019-03-23T09:45:21.670Z,12.07
2019-03-23T09:47:52.261Z,11.93
2019-03-23T09:50:23.250Z,13.43
2019-03-23T09:52:53.835Z,10.00
2019-03-23T09:55:24.522Z,10.03
2019-03-23T09:57:55.453Z,10.57
2019-03-23T10:00:25.813Z,12.47
2019-03-23T10:02:56.419Z,9.00
2019-03-23T10:05:27.104Z,13.50
2019-03-23T10:07:57.473Z,10.57
2019-03-23T10:10:27.764Z,5.90
2019-03-23T10:12:58.092Z,6.30
2019-03-23T10:15:28.659Z,9.10
2019-03-23T10:17:58.913Z,9.93
2019-03-23T10:20:29.181Z,7.47
2019-03-23T10:22:59.786Z,9.33
2019-03-23T10:25:30.323Z,9.07
2019-03-23T10:28:00.975Z,10.60
2019-03-23T10:30:31.276Z,10.43
2019-03-23T10:33:01.501Z,8.77
2019-03-23T10:35:32.086Z,8.17
2019-03-23T10:38:03.310Z,11.03
2019-03-23T10:40:33.945Z,9.60
2019-03-23T10:43:03.814Z,11.67
2019-03-23T10:45:43.808Z,7.33
2019-03-23T10:48:07.203Z,10.93
2019-03-23T10:50:37.834Z,7.73
2019-03-23T10:53:07.756Z,7.43
2019-03-23T10:55:38.621Z,10.97
2019-03-23T10:58:08.853Z,16.33
2019-03-23T11:00:39.018Z,11.90
2019-03-23T11:03:09.613Z,11.00
2019-03-23T11:05:39.884Z,11.70
2019-03-23T11:08:09.750Z,9.50
2019-03-23T11:10:41.953Z,11.00
2019-03-23T11:13:11.597Z,9.70
2019-03-23T11:15:42.102Z,10.10
2019-03-23T11:18:13.331Z,11.37
2019-03-23T11:20:44.429Z,11.50
2019-03-23T11:23:14.341Z,10.03
2019-03-23T11:25:44.945Z,11.33
2019-03-23T11:28:15.671Z,10.33
2019-03-23T11:30:45.714Z,8.50
2019-03-23T11:33:16.054Z,12.50
2019-03-23T11:35:57.238Z,9.70
2019-03-23T11:38:19.650Z,11.53
2019-03-23T11:40:54.983Z,11.90
2019-03-23T11:43:21.733Z,12.30
2019-03-23T11:45:52.065Z,9.13
2019-03-23T11:48:22.897Z,14.60
2019-03-23T11:50:52.841Z,10.20
2019-03-23T11:53:23.088Z,11.00
2019-03-23T11:55:53.680Z,8.80
2019-03-23T11:58:23.594Z,10.57
2019-03-23T12:00:53.801Z,8.40
2019-03-23T12:03:24.140Z,11.27
2019-03-23T12:05:55.417Z,11.63
2019-03-23T12:08:26.734Z,10.57
2019-03-23T12:11:02.945Z,12.97
2019-03-23T12:13:29.918Z,13.03
2019-03-23T12:16:00.258Z,16.00
2019-03-23T12:18:30.948Z,14.13
2019-03-23T12:21:01.973Z,21.17
2019-03-23T12:23:32.781Z,11.70
2019-03-23T12:26:03.150Z,15.80
2019-03-23T12:28:34.008Z,11.03
2019-03-23T12:31:04.673Z,15.80
2019-03-23T12:33:35.205Z,15.63
2019-03-23T12:36:05.146Z,12.80
2019-03-23T12:38:35.619Z,13.27
2019-03-23T12:41:14.229Z,12.50
2019-03-23T12:43:38.305Z,12.80
2019-03-23T12:46:08.685Z,14.80
2019-03-23T12:48:38.629Z,13.90
2019-03-23T12:51:09.122Z,11.60
2019-03-23T12:53:39.407Z,10.37
2019-03-23T12:56:10.009Z,11.40
2019-03-23T12:58:40.511Z,14.60
2019-03-23T13:01:11.553Z,14.00
2019-03-23T13:03:41.757Z,13.03
2019-03-23T13:06:12.627Z,13.10
2019-03-23T13:08:43.981Z,12.00
2019-03-23T13:11:23.051Z,14.13
2019-03-23T13:13:46.613Z,15.27
2019-03-23T13:16:16.877Z,15.43
2019-03-23T13:18:47.585Z,11.03
2019-03-23T13:21:17.842Z,15.33
2019-03-23T13:23:48.529Z,14.17
2019-03-23T13:26:18.417Z,14.40
2019-03-23T13:28:48.958Z,12.37
2019-03-23T13:31:19.697Z,16.90
2019-03-23T13:33:50.157Z,14.00
2019-03-23T13:36:20.364Z,17.90
2019-03-23T13:38:50.913Z,14.60
2019-03-23T13:41:21.224Z,19.40
2019-03-23T13:43:51.493Z,13.47
2019-03-23T13:46:21.693Z,14.00
2019-03-23T13:48:52.309Z,14.07
2019-03-23T13:51:22.640Z,14.20
2019-03-23T13:53:53.333Z,11.67
2019-03-23T13:56:23.709Z,13.10
2019-03-23T13:58:54.208Z,16.20
2019-03-23T14:01:24.625Z,12.47
2019-03-23T14:03:54.481Z,14.60
2019-03-23T14:06:25.033Z,13.07
2019-03-23T14:08:55.631Z,16.20
2019-03-23T14:11:25.883Z,18.73
2019-03-23T14:13:56.517Z,14.07
2019-03-23T14:16:27.565Z,14.40
2019-03-23T14:18:58.157Z,12.90
2019-03-23T14:21:29.408Z,14.80
2019-03-23T14:23:59.749Z,16.67
2019-03-23T14:26:30.313Z,13.60
2019-03-23T14:29:00.944Z,16.07
2019-03-23T14:31:31.478Z,13.30
2019-03-23T14:34:02.110Z,14.00
2019-03-23T14:36:32.468Z,14.50
2019-03-23T14:39:04.995Z,14.70
2019-03-23T14:41:35.662Z,11.83
2019-03-23T14:44:06.292Z,15.03
2019-03-23T14:46:36.577Z,14.50
2019-03-23T14:49:06.867Z,17.83
2019-03-23T14:51:37.532Z,14.80
2019-03-23T14:54:07.775Z,12.57
2019-03-23T14:56:38.162Z,13.60
2019-03-23T14:59:08.731Z,12.00
2019-03-23T15:01:39.267Z,12.77
2019-03-23T15:04:09.848Z,16.77
2019-03-23T15:06:40.418Z,13.60
2019-03-23T15:09:11.367Z,20.70
2019-03-23T15:11:41.585Z,13.13
2019-03-23T15:14:12.131Z,13.97
2019-03-23T15:16:42.045Z,12.07
2019-03-23T15:19:11.943Z,14.40
2019-03-23T15:21:42.596Z,16.90
2019-03-23T15:24:12.972Z,17.50
2019-03-23T15:26:43.859Z,12.90
2019-03-23T15:29:13.774Z,11.93
2019-03-23T15:31:44.439Z,12.20
2019-03-23T15:34:15.432Z,13.47
2019-03-23T15:36:45.654Z,14.53
2019-03-23T15:39:15.844Z,13.50
2019-03-23T15:41:46.783Z,9.70
2019-03-23T15:44:16.689Z,12.60
2019-03-23T15:46:47.685Z,13.77
2019-03-23T15:49:19.065Z,13.27
2019-03-23T15:51:49.448Z,13.23
2019-03-23T15:54:20.210Z,10.30
2019-03-23T15:56:50.821Z,13.13
2019-03-23T15:59:21.540Z,12.43
2019-03-23T16:01:52.069Z,9.03
2019-03-23T16:04:22.634Z,9.87
2019-03-23T16:06:53.385Z,11.33
2019-03-23T16:09:24.002Z,11.70
2019-03-23T16:11:53.981Z,9.40
2019-03-23T16:14:23.928Z,9.70
2019-03-23T16:16:54.876Z,13.13
2019-03-23T16:19:25.588Z,10.70
2019-03-23T16:21:55.878Z,10.17
2019-03-23T16:24:26.218Z,11.17
2019-03-23T16:26:57.233Z,13.63
2019-03-23T16:29:27.794Z,10.83
2019-03-23T16:31:58.221Z,10.77
2019-03-23T16:34:28.554Z,12.33
2019-03-23T16:36:58.506Z,14.20
2019-03-23T16:39:29.530Z,13.97
2019-03-23T16:42:00.534Z,13.37
2019-03-23T16:44:31.241Z,14.77
2019-03-23T16:47:01.132Z,13.77
2019-03-23T16:49:31.794Z,13.97
2019-03-23T16:52:02.370Z,13.60
2019-03-23T16:54:32.911Z,16.50
2019-03-23T16:57:03.927Z,14.70
2019-03-23T16:59:34.387Z,16.30
2019-03-23T17:02:04.627Z,15.83
2019-03-23T17:04:34.947Z,17.17
2019-03-23T17:07:05.658Z,16.80
2019-03-23T17:09:35.797Z,16.07
2019-03-23T17:12:06.804Z,17.63
2019-03-23T17:14:37.111Z,15.30
2019-03-23T17:17:07.058Z,17.23
2019-03-23T17:19:37.474Z,19.60
2019-03-23T17:22:08.133Z,26.53
2019-03-23T17:24:38.061Z,19.60
2019-03-23T17:27:08.534Z,24.77
2019-03-23T17:29:39.253Z,18.17
2019-03-23T17:32:09.786Z,22.23
2019-03-23T17:34:40.089Z,22.53
2019-03-23T17:37:11.013Z,22.17
2019-03-23T17:39:41.996Z,21.70
2019-03-23T17:42:12.291Z,27.80
2019-03-23T17:44:42.922Z,29.90
2019-03-23T17:47:12.882Z,26.00
2019-03-23T17:49:43.069Z,28.70
2019-03-23T17:52:13.500Z,26.33
2019-03-23T17:54:44.113Z,24.57
2019-03-23T17:57:14.650Z,27.50
2019-03-23T17:59:44.932Z,28.90
2019-03-23T18:02:15.260Z,28.87
2019-03-23T18:04:45.108Z,29.53
2019-03-23T18:07:15.333Z,30.17
2019-03-23T18:09:45.533Z,26.37
2019-03-23T18:12:15.673Z,34.77
2019-03-23T18:14:46.718Z,33.20
2019-03-23T18:17:16.883Z,29.93
2019-03-23T18:19:47.567Z,27.43
2019-03-23T18:22:18.569Z,34.10
2019-03-23T18:24:49.575Z,33.57
2019-03-23T18:27:19.966Z,32.97
2019-03-23T18:29:50.241Z,32.43
2019-03-23T18:32:21.575Z,36.17
2019-03-23T18:34:51.816Z,33.10
2019-03-23T18:37:22.097Z,31.17
2019-03-23T18:39:52.753Z,32.10
2019-03-23T18:42:22.689Z,29.93
2019-03-23T18:44:53.762Z,36.97
2019-03-23T18:47:23.680Z,37.93
2019-03-23T18:49:53.558Z,36.40
2019-03-23T18:52:23.747Z,44.87
2019-03-23T18:54:53.982Z,45.13
2019-03-23T18:57:23.876Z,42.63
2019-03-23T18:59:53.733Z,38.13
2019-03-23T19:02:23.935Z,44.23
2019-03-23T19:04:54.429Z,44.83
2019-03-23T19:07:24.733Z,41.60
2019-03-23T19:09:54.614Z,43.60
2019-03-23T19:12:24.730Z,44.90
2019-03-23T19:14:54.576Z,45.50
2019-03-23T19:17:25.465Z,43.60
2019-03-23T19:19:56.097Z,47.47
2019-03-23T19:22:27.126Z,48.83
2019-03-23T19:24:57.653Z,43.50
2019-03-23T19:27:28.193Z,45.87
2019-03-23T19:29:58.119Z,53.97
2019-03-23T19:32:29.101Z,53.93
2019-03-23T19:35:00.290Z,50.83
2019-03-23T19:37:30.693Z,50.80
2019-03-23T19:40:01.001Z,53.83
2019-03-23T19:42:30.863Z,54.70
2019-03-23T19:45:01.211Z,52.07
2019-03-23T19:47:31.593Z,49.30
2019-03-23T19:50:02.114Z,51.57
2019-03-23T19:52:33.635Z,57.80
2019-03-23T19:55:04.362Z,54.03
2019-03-23T19:57:34.743Z,55.83
2019-03-23T20:00:05.177Z,48.30
2019-03-23T20:02:35.542Z,51.83
2019-03-23T20:05:05.719Z,53.30
2019-03-23T20:07:35.882Z,55.07
2019-03-23T20:10:07.398Z,52.00
2019-03-23T20:12:37.351Z,56.57
2019-03-23T20:15:07.933Z,53.27
2019-03-23T20:17:38.613Z,51.83
2019-03-23T20:20:10.203Z,49.40
2019-03-23T20:22:40.453Z,52.77
2019-03-23T20:25:11.502Z,54.03
2019-03-23T20:27:41.439Z,59.60
2019-03-23T20:30:12.429Z,56.67
2019-03-23T20:32:42.921Z,58.60
2019-03-23T20:35:13.241Z,54.67
2019-03-23T20:37:44.389Z,53.10
2019-03-23T20:40:14.628Z,60.43
2019-03-23T20:42:44.892Z,66.37
2019-03-23T20:45:20.485Z,58.23
2019-03-23T20:47:51.419Z,56.30
2019-03-23T20:50:22.138Z,62.00
2019-03-23T20:52:52.335Z,63.90
2019-03-23T20:55:30.346Z,66.90
2019-03-23T20:58:00.981Z,56.07
2019-03-23T21:00:31.623Z,60.93
2019-03-23T21:03:02.558Z,58.60
2019-03-23T21:05:34.205Z,58.20
2019-03-23T21:08:04.940Z,54.67
2019-03-23T21:10:35.193Z,61.37
2019-03-23T21:13:06.285Z,63.73
2019-03-23T21:15:36.867Z,60.13
2019-03-23T21:18:06.782Z,64.10
2019-03-23T21:20:37.361Z,47.60
2019-03-23T21:23:08.205Z,57.13
2019-03-23T21:25:38.548Z,53.47
2019-03-23T21:28:08.433Z,49.10
2019-03-23T21:30:39.103Z,52.97
2019-03-23T21:33:09.582Z,58.20
2019-03-23T21:35:40.299Z,55.63
2019-03-23T21:38:10.999Z,51.00
2019-03-23T21:40:41.327Z,51.43
2019-03-23T21:43:11.984Z,56.27
2019-03-23T21:45:42.400Z,61.57
2019-03-23T21:48:13.587Z,51.40
2019-03-23T21:50:47.791Z,48.90
2019-03-23T21:53:16.663Z,73.07
2019-03-23T21:55:47.079Z,72.00
2019-03-23T21:58:17.931Z,68.47
2019-03-23T22:00:48.478Z,70.93
2019-03-23T22:03:19.501Z,70.33
2019-03-23T22:05:49.946Z,84.53
2019-03-23T22:08:20.961Z,76.90
2019-03-23T22:10:51.171Z,84.17
2019-03-23T22:13:22.484Z,74.63
2019-03-23T22:15:53.708Z,78.60
2019-03-23T22:18:24.029Z,77.47
2019-03-23T22:20:54.330Z,83.37
2019-03-23T22:23:25.217Z,80.00
2019-03-23T22:25:55.923Z,76.90
2019-03-23T22:28:25.845Z,83.27
2019-03-23T22:30:56.642Z,62.27
2019-03-23T22:33:27.892Z,84.13
2019-03-23T22:35:58.779Z,89.00
2019-03-23T22:38:29.317Z,83.37
2019-03-23T22:41:00.098Z,78.00
2019-03-23T22:43:30.353Z,91.17
2019-03-23T22:46:00.549Z,92.67
2019-03-23T22:48:31.445Z,90.40
2019-03-23T22:51:01.834Z,82.73
2019-03-23T22:53:32.952Z,85.47
2019-03-23T22:56:03.714Z,100.67
2019-03-23T22:58:34.082Z,86.20
2019-03-23T23:01:04.112Z,95.30
2019-03-23T23:03:34.810Z,83.00
2019-03-23T23:06:05.449Z,92.53
2019-03-23T23:08:36.081Z,98.63
2019-03-23T23:11:06.451Z,84.60
2019-03-23T23:13:37.017Z,75.80
2019-03-23T23:16:07.736Z,73.00
2019-03-23T23:18:38.369Z,71.53
2019-03-23T23:21:09.004Z,65.00
2019-03-23T23:23:39.333Z,63.90
2019-03-23T23:26:09.725Z,58.07
2019-03-23T23:28:40.214Z,49.77
2019-03-23T23:31:10.573Z,45.07
2019-03-23T23:33:40.933Z,55.13
2019-03-23T23:36:11.180Z,49.10
2019-03-23T23:38:41.724Z,53.80
2019-03-23T23:41:11.932Z,48.30
2019-03-23T23:43:42.774Z,50.23
2019-03-23T23:46:13.842Z,48.73
2019-03-23T23:48:51.296Z,40.00
2019-03-23T23:51:16.626Z,50.70
2019-03-23T23:53:46.850Z,50.93
2019-03-23T23:56:17.092Z,41.60
2019-03-23T23:58:47.008Z,44.77
